Time;durP1;ratioP1;P1;durP2;ratioP2;P2;SDS_P1;SDS_P2;PMS_P1;PMS_P2;Temp;Humidity;BMP_temperature;BMP_pressure;BME280_temperature;BME280_humidity;BME280_pressure;Samples;Min_cycle;Max_cycle;Signal;HPM_P1;HPM_P2
2022/05/04 00:00:46;;;;;;;3.63;3.15;;;;;;;;;;10359476;28;20074;-64
2022/05/04 00:05:45;;;;;;;3.55;2.95;;;;;;;;;;10359277;28;20206;-64
2022/05/04 00:10:43;;;;;;;3.08;2.78;;;;;;;;;;10358871;28;20505;-63
2022/05/04 00:15:43;;;;;;;3.20;2.78;;;;;;;;;;10356656;28;20072;-64
2022/05/04 00:20:41;;;;;;;3.20;2.83;;;;;;;;;;10358309;28;20067;-64
2022/05/04 00:25:39;;;;;;;3.45;3.15;;;;;;;;;;10359328;28;20059;-64
2022/05/04 00:30:38;;;;;;;3.00;2.80;;;;;;;;;;10354902;28;20044;-64
2022/05/04 00:35:37;;;;;;;5.85;3.63;;;;;;;;;;10354670;28;20079;-64
2022/05/04 00:40:36;;;;;;;3.35;3.05;;;;;;;;;;10357747;28;20146;-64
2022/05/04 00:45:34;;;;;;;5.03;3.60;;;;;;;;;;10357151;28;20083;-64
2022/05/04 00:50:32;;;;;;;6.03;3.45;;;;;;;;;;10357324;28;20056;-64
2022/05/04 00:55:32;;;;;;;3.30;3.00;;;;;;;;;;10357201;28;20070;-64
2022/05/04 01:00:31;;;;;;;3.35;3.05;;;;;;;;;;10356880;28;20087;-64
2022/05/04 01:05:29;;;;;;;4.07;3.40;;;;;;;;;;10357000;28;20080;-64
2022/05/04 01:10:27;;;;;;;7.38;3.33;;;;;;;;;;10356485;28;20114;-64
2022/05/04 01:15:27;;;;;;;4.55;3.10;;;;;;;;;;10356542;28;20513;-65
2022/05/04 01:20:25;;;;;;;4.00;3.15;;;;;;;;;;10356103;28;20064;-64
2022/05/04 01:25:25;;;;;;;4.25;3.20;;;;;;;;;;10355819;28;20051;-64
2022/05/04 01:30:23;;;;;;;3.65;2.90;;;;;;;;;;10355860;28;20098;-64
2022/05/04 01:35:21;;;;;;;3.63;3.33;;;;;;;;;;10355806;28;20044;-65
2022/05/04 01:40:20;;;;;;;3.65;2.90;;;;;;;;;;10355705;28;20079;-64
2022/05/04 01:45:19;;;;;;;4.75;3.50;;;;;;;;;;10355386;28;20051;-64
2022/05/04 01:50:18;;;;;;;3.22;2.90;;;;;;;;;;10355720;28;20048;-64
2022/05/04 01:55:17;;;;;;;4.03;3.45;;;;;;;;;;10355484;28;20090;-65
2022/05/04 02:00:15;;;;;;;4.03;3.63;;;;;;;;;;10355212;28;20078;-64
2022/05/04 02:05:15;;;;;;;3.88;3.03;;;;;;;;;;10354457;28;20082;-64
2022/05/04 02:10:13;;;;;;;3.50;3.17;;;;;;;;;;10355024;28;20087;-65
2022/05/04 02:15:11;;;;;;;3.53;3.22;;;;;;;;;;10354450;28;20083;-64
2022/05/04 02:20:10;;;;;;;3.47;3.17;;;;;;;;;;10354933;28;20080;-65
2022/05/04 02:25:10;;;;;;;3.83;3.50;;;;;;;;;;10355075;28;20088;-64
2022/05/04 02:30:09;;;;;;;4.10;3.70;;;;;;;;;;10354681;28;20094;-65
2022/05/04 02:40:25;;;;;;;3.30;3.00;;;;;;;;;;10361376;28;20474;-64
2022/05/04 02:45:23;;;;;;;3.08;2.75;;;;;;;;;;10362899;28;20470;-64
2022/05/04 02:50:21;;;;;;;4.40;3.17;;;;;;;;;;10362967;28;20453;-64
2022/05/04 02:55:20;;;;;;;3.35;3.05;;;;;;;;;;10362544;28;20068;-64
2022/05/04 03:00:19;;;;;;;4.70;3.15;;;;;;;;;;10361871;28;20079;-64
2022/05/04 03:05:19;;;;;;;4.25;2.90;;;;;;;;;;10361434;28;20083;-64
2022/05/04 03:10:18;;;;;;;3.13;2.75;;;;;;;;;;10360839;28;20089;-64
2022/05/04 03:15:16;;;;;;;4.97;2.90;;;;;;;;;;10360667;28;20106;-65
2022/05/04 03:20:16;;;;;;;9.38;3.20;;;;;;;;;;10360885;28;20067;-64
2022/05/04 03:25:14;;;;;;;3.22;2.60;;;;;;;;;;10360650;28;20517;-64
2022/05/04 03:30:12;;;;;;;3.53;3.03;;;;;;;;;;10360684;28;20464;-64
2022/05/04 03:35:11;;;;;;;4.07;2.97;;;;;;;;;;10360335;28;20520;-64
2022/05/04 03:40:13;;;;;;;3.63;3.33;;;;;;;;;;10359941;28;20540;-64
2022/05/04 03:45:12;;;;;;;4.18;3.30;;;;;;;;;;10360341;28;20080;-64
2022/05/04 03:50:10;;;;;;;2.72;2.53;;;;;;;;;;10361068;28;20083;-64
2022/05/04 03:55:08;;;;;;;3.38;2.88;;;;;;;;;;10351262;28;20079;-64
2022/05/04 04:00:10;;;;;;;3.53;2.50;;;;;;;;;;10360415;28;20133;-65
2022/05/04 04:05:09;;;;;;;3.78;3.13;;;;;;;;;;10359573;28;20076;-65
2022/05/04 04:10:08;;;;;;;3.40;3.10;;;;;;;;;;10358685;28;20083;-65
2022/05/04 04:15:08;;;;;;;4.05;3.17;;;;;;;;;;10357817;28;20075;-65
2022/05/04 04:25:22;;;;;;;3.28;2.70;;;;;;;;;;10356894;28;20075;-64
2022/05/04 04:30:22;;;;;;;5.20;2.53;;;;;;;;;;10356599;28;20517;-63
2022/05/04 04:35:20;;;;;;;2.40;2.25;;;;;;;;;;10357385;28;20521;-64
2022/05/04 04:40:19;;;;;;;3.05;2.63;;;;;;;;;;10355004;28;20494;-64
2022/05/04 04:45:17;;;;;;;2.92;2.70;;;;;;;;;;10357331;28;20090;-64
2022/05/04 04:50:17;;;;;;;3.53;2.45;;;;;;;;;;10352954;28;20067;-64
2022/05/04 04:55:15;;;;;;;2.50;2.30;;;;;;;;;;10351094;28;20481;-64
2022/05/04 05:00:14;;;;;;;8.40;3.17;;;;;;;;;;10356189;28;20067;-65
2022/05/04 05:05:12;;;;;;;6.63;3.00;;;;;;;;;;10350965;28;20067;-65
2022/05/04 05:10:12;;;;;;;3.00;2.50;;;;;;;;;;10351132;28;20313;-64
2022/05/04 05:20:27;;;;;;;4.68;2.55;;;;;;;;;;10348856;28;20063;-65
2022/05/04 05:25:26;;;;;;;3.72;3.10;;;;;;;;;;10355655;28;20040;-63
2022/05/04 05:30:25;;;;;;;2.97;2.67;;;;;;;;;;10352406;28;20060;-65
2022/05/04 05:35:23;;;;;;;6.05;2.90;;;;;;;;;;10354225;28;20071;-64
2022/05/04 05:40:22;;;;;;;7.07;2.60;;;;;;;;;;10353686;28;20075;-64
2022/05/04 05:45:21;;;;;;;5.00;2.80;;;;;;;;;;10351958;28;20071;-65
2022/05/04 05:50:20;;;;;;;2.90;2.60;;;;;;;;;;10352412;28;20060;-65
2022/05/04 05:55:18;;;;;;;2.85;2.40;;;;;;;;;;10356387;28;20079;-65
2022/05/04 06:00:16;;;;;;;6.82;2.97;;;;;;;;;;10352440;28;20391;-65
2022/05/04 06:05:16;;;;;;;2.40;2.20;;;;;;;;;;10352520;28;20071;-63
2022/05/04 06:10:14;;;;;;;2.80;2.30;;;;;;;;;;10353345;28;20540;-65
2022/05/04 06:15:14;;;;;;;3.65;1.98;;;;;;;;;;10360581;28;20056;-65
2022/05/04 06:20:13;;;;;;;4.20;2.63;;;;;;;;;;10361830;28;20082;-64
2022/05/04 06:25:12;;;;;;;5.45;3.00;;;;;;;;;;10362448;28;20206;-65
2022/05/04 06:35:27;;;;;;;9.02;4.43;;;;;;;;;;10361619;28;20572;-65
2022/05/04 06:40:26;;;;;;;3.63;2.72;;;;;;;;;;10361329;28;20072;-65
2022/05/04 06:45:24;;;;;;;2.72;2.40;;;;;;;;;;10360943;28;20048;-65
2022/05/04 06:50:23;;;;;;;5.53;3.45;;;;;;;;;;10359951;28;20040;-66
2022/05/04 06:55:21;;;;;;;3.05;2.75;;;;;;;;;;10361027;28;20134;-65
2022/05/04 07:00:21;;;;;;;3.90;3.50;;;;;;;;;;10359158;28;20079;-65
2022/05/04 07:05:19;;;;;;;7.75;3.80;;;;;;;;;;10360771;28;20087;-65
2022/05/04 07:10:17;;;;;;;2.83;2.53;;;;;;;;;;10360076;28;20088;-65
2022/05/04 07:15:16;;;;;;;10.02;6.28;;;;;;;;;;10359963;28;20069;-65
2022/05/04 07:20:15;;;;;;;12.73;7.35;;;;;;;;;;10359794;28;20071;-66
2022/05/04 07:25:13;;;;;;;4.40;3.78;;;;;;;;;;10359180;28;20532;-65
2022/05/04 07:30:12;;;;;;;5.32;3.10;;;;;;;;;;10358313;28;20521;-65
2022/05/04 07:35:11;;;;;;;4.45;2.67;;;;;;;;;;10359483;28;20067;-66
2022/05/04 07:45:33;;;;;;;6.85;3.40;;;;;;;;;;10339339;28;20056;-66
2022/05/04 07:50:31;;;;;;;3.70;2.75;;;;;;;;;;10354018;28;20079;-66
2022/05/04 07:55:31;;;;;;;6.25;3.13;;;;;;;;;;10359073;28;20067;-66
2022/05/04 08:05:46;;;;;;;3.33;3.03;;;;;;;;;;10358948;28;20086;-66
2022/05/04 08:10:46;;;;;;;4.25;3.35;;;;;;;;;;10357164;28;20082;-65
2022/05/04 08:15:44;;;;;;;4.63;3.90;;;;;;;;;;10356442;28;20489;-66
2022/05/04 08:20:42;;;;;;;4.60;3.78;;;;;;;;;;10356433;28;20174;-65
2022/05/04 08:25:40;;;;;;;4.25;2.75;;;;;;;;;;10356391;28;20067;-66
2022/05/04 08:30:40;;;;;;;2.75;2.50;;;;;;;;;;10352884;28;20064;-66
2022/05/04 08:35:39;;;;;;;6.50;3.22;;;;;;;;;;10351027;28;20044;-66
2022/05/04 08:40:38;;;;;;;6.88;3.78;;;;;;;;;;10352367;28;20079;-66
2022/05/04 08:45:37;;;;;;;7.00;2.78;;;;;;;;;;10355183;28;20066;-66
2022/05/04 08:50:39;;;;;;;4.35;2.30;;;;;;;;;;10355625;28;20071;-66
2022/05/04 08:55:38;;;;;;;5.57;2.75;;;;;;;;;;10356163;28;20052;-66
2022/05/04 09:00:37;;;;;;;3.60;2.28;;;;;;;;;;10351742;28;20080;-66
2022/05/04 09:05:42;;;;;;;5.30;3.05;;;;;;;;;;10355295;28;20516;-66
2022/05/04 09:11:00;;;;;;;3.95;2.88;;;;;;;;;;10354421;28;20096;-66
2022/05/04 09:15:59;;;;;;;3.10;2.50;;;;;;;;;;10355687;28;20071;-65
2022/05/04 09:21:04;;;;;;;6.80;2.50;;;;;;;;;;10354396;28;20450;-66
2022/05/04 09:26:03;;;;;;;4.35;3.35;;;;;;;;;;10355104;28;20040;-66
2022/05/04 09:31:05;;;;;;;6.20;1.98;;;;;;;;;;10353159;28;20080;-66
2022/05/04 09:36:05;;;;;;;7.65;3.13;;;;;;;;;;10355411;28;20520;-66
2022/05/04 09:46:32;;;;;;;5.10;2.70;;;;;;;;;;10353942;28;20536;-66
2022/05/04 09:51:33;;;;;;;3.33;2.53;;;;;;;;;;10356203;28;20080;-66
2022/05/04 09:56:31;;;;;;;4.45;2.63;;;;;;;;;;10348344;28;20055;-64
2022/05/04 10:01:29;;;;;;;4.35;2.58;;;;;;;;;;10349881;28;20071;-64
2022/05/04 10:06:28;;;;;;;4.05;2.63;;;;;;;;;;10344941;28;20072;-64
2022/05/04 10:11:30;;;;;;;6.22;3.17;;;;;;;;;;10347420;28;20079;-64
2022/05/04 10:16:29;;;;;;;4.88;2.95;;;;;;;;;;10347103;28;20428;-64
2022/05/04 10:21:28;;;;;;;2.97;2.58;;;;;;;;;;10347012;28;20090;-64
2022/05/04 10:26:34;;;;;;;4.10;3.03;;;;;;;;;;10345491;28;20170;-64
2022/05/04 10:31:34;;;;;;;3.47;3.17;;;;;;;;;;10353467;28;20086;-64
2022/05/04 10:36:33;;;;;;;7.38;3.13;;;;;;;;;;10351181;28;20071;-65
2022/05/04 10:41:37;;;;;;;5.13;4.22;;;;;;;;;;10343910;28;20075;-65
2022/05/04 10:46:38;;;;;;;4.35;3.20;;;;;;;;;;10350405;28;20078;-65
2022/05/04 10:51:38;;;;;;;5.22;2.45;;;;;;;;;;10354577;28;20064;-65
2022/05/04 10:56:41;;;;;;;5.13;3.10;;;;;;;;;;10354461;28;20042;-65
2022/05/04 11:01:39;;;;;;;4.80;3.15;;;;;;;;;;10359341;28;20083;-65
2022/05/04 11:06:39;;;;;;;4.03;2.65;;;;;;;;;;10361383;28;20067;-65
2022/05/04 11:11:39;;;;;;;3.65;2.58;;;;;;;;;;10361395;28;20325;-65
2022/05/04 11:16:38;;;;;;;3.47;2.80;;;;;;;;;;10361025;28;20052;-65
2022/05/04 11:21:37;;;;;;;5.55;3.08;;;;;;;;;;10361179;28;20072;-65
2022/05/04 11:26:36;;;;;;;4.10;2.40;;;;;;;;;;10360766;28;20055;-65
2022/05/04 11:31:36;;;;;;;3.55;2.25;;;;;;;;;;10360430;28;20540;-65
2022/05/04 11:36:34;;;;;;;6.55;2.58;;;;;;;;;;10360844;28;20040;-65
2022/05/04 11:41:33;;;;;;;3.63;2.72;;;;;;;;;;10360536;28;20076;-66
2022/05/04 11:46:31;;;;;;;9.13;4.38;;;;;;;;;;10360218;28;20067;-65
2022/05/04 11:51:31;;;;;;;4.43;3.30;;;;;;;;;;10360221;28;20264;-65
2022/05/04 11:56:29;;;;;;;4.85;3.22;;;;;;;;;;10353624;28;20515;-65
2022/05/04 12:01:28;;;;;;;4.95;3.50;;;;;;;;;;10353381;28;20079;-65
2022/05/04 12:06:26;;;;;;;4.22;2.95;;;;;;;;;;10359420;28;20064;-65
2022/05/04 12:11:28;;;;;;;3.50;2.47;;;;;;;;;;10359080;28;20087;-65
2022/05/04 12:16:26;;;;;;;6.72;3.65;;;;;;;;;;10352936;28;20079;-64
2022/05/04 12:21:25;;;;;;;3.75;3.13;;;;;;;;;;10358891;28;20504;-65
2022/05/04 12:26:24;;;;;;;5.63;2.53;;;;;;;;;;10358489;28;20500;-65
2022/05/04 12:36:40;;;;;;;3.92;3.53;;;;;;;;;;10358278;28;20068;-65
2022/05/04 12:41:38;;;;;;;6.57;2.95;;;;;;;;;;10357639;28;20087;-65
2022/05/04 12:46:38;;;;;;;4.25;2.30;;;;;;;;;;10357782;28;20040;-65
2022/05/04 12:51:36;;;;;;;8.38;4.50;;;;;;;;;;10357741;28;20040;-65
2022/05/04 12:56:47;;;;;;;3.80;3.25;;;;;;;;;;10357424;28;20050;-65
2022/05/04 13:01:47;;;;;;;6.10;4.60;;;;;;;;;;10346193;28;20484;-65
2022/05/04 13:06:45;;;;;;;5.78;2.65;;;;;;;;;;10356952;28;20051;-65
2022/05/04 13:11:44;;;;;;;10.07;6.40;;;;;;;;;;10351017;28;20075;-66
2022/05/04 13:16:42;;;;;;;8.07;6.68;;;;;;;;;;10355131;28;20075;-65
2022/05/04 13:21:41;;;;;;;6.57;5.43;;;;;;;;;;10355686;28;20087;-65
2022/05/04 13:26:42;;;;;;;4.82;3.38;;;;;;;;;;10356155;28;20135;-65
2022/05/04 13:31:40;;;;;;;6.38;4.32;;;;;;;;;;10356180;28;20060;-65
2022/05/04 13:36:39;;;;;;;18.67;15.13;;;;;;;;;;10355898;28;20043;-64
2022/05/04 13:41:39;;;;;;;7.32;6.20;;;;;;;;;;10356048;28;20076;-65
2022/05/04 13:46:37;;;;;;;7.13;3.72;;;;;;;;;;10355831;28;20051;-65
2022/05/04 13:56:53;;;;;;;3.47;2.80;;;;;;;;;;10355236;28;20082;-65
2022/05/04 14:01:51;;;;;;;6.78;4.00;;;;;;;;;;10354853;28;20084;-65
2022/05/04 14:06:50;;;;;;;8.35;3.63;;;;;;;;;;10355596;28;20087;-65
2022/05/04 14:11:48;;;;;;;6.97;4.32;;;;;;;;;;10355105;28;20074;-64
2022/05/04 14:16:48;;;;;;;6.63;4.15;;;;;;;;;;10355014;28;20474;-65
2022/05/04 14:21:47;;;;;;;5.50;3.85;;;;;;;;;;10349325;28;20071;-65
2022/05/04 14:26:45;;;;;;;4.68;3.13;;;;;;;;;;10354943;28;20068;-65
2022/05/04 14:31:43;;;;;;;10.45;4.28;;;;;;;;;;10354105;28;20103;-65
2022/05/04 14:36:43;;;;;;;5.00;3.42;;;;;;;;;;10362354;28;20091;-65
2022/05/04 14:41:41;;;;;;;3.05;2.30;;;;;;;;;;10361981;28;20052;-64
2022/05/04 14:46:39;;;;;;;8.73;2.72;;;;;;;;;;10362471;28;20068;-65
2022/05/04 14:51:39;;;;;;;9.50;3.45;;;;;;;;;;10361924;28;20493;-66
2022/05/04 14:56:38;;;;;;;24.38;4.63;;;;;;;;;;10362060;28;20071;-66
2022/05/04 15:01:36;;;;;;;11.13;3.28;;;;;;;;;;10361377;28;20111;-65
2022/05/04 15:06:36;;;;;;;36.92;7.97;;;;;;;;;;10361294;28;20068;-67
2022/05/04 15:11:47;;;;;;;24.55;8.02;;;;;;;;;;10361354;28;20072;-66
2022/05/04 15:16:46;;;;;;;15.73;5.47;;;;;;;;;;10361394;28;20389;-66
2022/05/04 15:21:44;;;;;;;6.75;3.53;;;;;;;;;;10361145;28;20060;-66
2022/05/04 15:26:42;;;;;;;7.55;2.80;;;;;;;;;;10359523;28;20059;-66
2022/05/04 15:31:42;;;;;;;17.02;8.27;;;;;;;;;;10360359;28;20301;-67
2022/05/04 15:36:40;;;;;;;13.90;8.77;;;;;;;;;;10360555;28;20043;-65
2022/05/04 15:41:40;;;;;;;14.95;7.18;;;;;;;;;;10360040;28;20067;-66
2022/05/04 15:46:39;;;;;;;118.88;60.72;;;;;;;;;;10359228;28;20082;-67
2022/05/04 15:51:40;;;;;;;5.53;3.85;;;;;;;;;;10359932;28;20040;-66
2022/05/04 15:56:40;;;;;;;5.22;2.60;;;;;;;;;;10359542;28;20043;-66
2022/05/04 16:01:38;;;;;;;7.40;3.25;;;;;;;;;;10359636;28;20071;-65
2022/05/04 16:06:38;;;;;;;5.88;3.13;;;;;;;;;;10359496;28;20078;-65
2022/05/04 16:11:37;;;;;;;5.72;2.90;;;;;;;;;;10357574;28;20469;-65
2022/05/04 16:16:35;;;;;;;3.92;3.30;;;;;;;;;;10353785;28;20068;-65
2022/05/04 16:21:43;;;;;;;10.50;3.40;;;;;;;;;;10353772;28;20456;-65
2022/05/04 16:26:44;;;;;;;6.38;2.97;;;;;;;;;;10352666;28;20063;-65
2022/05/04 16:31:43;;;;;;;8.32;3.70;;;;;;;;;;10356237;28;20071;-65
2022/05/04 16:36:42;;;;;;;8.48;5.00;;;;;;;;;;10356888;28;20063;-64
2022/05/04 16:42:02;;;;;;;6.15;4.72;;;;;;;;;;10357336;28;20098;-65
2022/05/04 16:47:00;;;;;;;10.23;8.80;;;;;;;;;;10356525;28;20079;-65
2022/05/04 16:51:58;;;;;;;17.30;6.07;;;;;;;;;;10356627;28;20481;-65
2022/05/04 16:56:56;;;;;;;6.13;5.05;;;;;;;;;;10349953;28;20055;-65
2022/05/04 17:01:56;;;;;;;9.90;5.88;;;;;;;;;;10355380;28;20067;-65
2022/05/04 17:06:54;;;;;;;7.53;6.25;;;;;;;;;;10355733;28;20079;-65
2022/05/04 17:11:53;;;;;;;13.57;11.10;;;;;;;;;;10354621;28;20580;-65
2022/05/04 17:16:51;;;;;;;9.25;3.95;;;;;;;;;;10356079;28;20048;-65
2022/05/04 17:21:51;;;;;;;35.53;24.23;;;;;;;;;;10352190;28;20075;-64
2022/05/04 17:26:49;;;;;;;16.10;12.27;;;;;;;;;;10353687;28;20646;-64
2022/05/04 17:36:42;;;;;;;7.82;5.85;;;;;;;;;;10353067;28;20071;-64
2022/05/04 17:37:07;;;;;;;11.25;6.13;;;;;;;;;;10353337;28;20113;-63
2022/05/04 17:42:05;;;;;;;9.63;6.18;;;;;;;;;;10352061;28;20067;-64
2022/05/04 17:47:04;;;;;;;7.22;5.88;;;;;;;;;;10352643;28;20083;-64
2022/05/04 17:52:02;;;;;;;12.45;7.30;;;;;;;;;;10355208;28;20074;-63
2022/05/04 17:57:02;;;;;;;13.60;6.50;;;;;;;;;;10353157;28;20067;-64
2022/05/04 18:07:16;;;;;;;9.63;7.65;;;;;;;;;;10350620;28;20078;-63
2022/05/04 18:12:15;;;;;;;11.80;7.03;;;;;;;;;;10364731;28;20076;-64
2022/05/04 18:17:14;;;;;;;11.32;5.97;;;;;;;;;;10365566;28;20086;-64
2022/05/04 18:22:12;;;;;;;12.77;6.75;;;;;;;;;;10363767;28;20074;-64
2022/05/04 18:27:10;;;;;;;13.98;6.20;;;;;;;;;;10366526;28;20071;-64
2022/05/04 18:32:10;;;;;;;8.07;4.50;;;;;;;;;;10364593;28;20064;-64
2022/05/04 18:37:09;;;;;;;6.05;4.25;;;;;;;;;;10366098;28;20075;-64
2022/05/04 18:42:07;;;;;;;9.10;4.85;;;;;;;;;;10364292;28;20071;-63
2022/05/04 18:47:05;;;;;;;10.35;5.95;;;;;;;;;;10366556;28;20079;-63
2022/05/04 18:52:06;;;;;;;4.22;3.30;;;;;;;;;;10365623;28;20075;-63
2022/05/04 18:57:24;;;;;;;7.55;4.03;;;;;;;;;;10365217;28;20071;-63
2022/05/04 19:02:22;;;;;;;5.50;2.97;;;;;;;;;;10365633;28;20067;-64
2022/05/04 19:07:22;;;;;;;6.22;4.47;;;;;;;;;;10365096;28;20064;-64
2022/05/04 19:12:21;;;;;;;7.80;3.30;;;;;;;;;;10366548;28;20075;-64
2022/05/04 19:17:19;;;;;;;5.90;4.07;;;;;;;;;;10365325;28;20082;-64
2022/05/04 19:22:39;;;;;;;4.43;3.55;;;;;;;;;;10354652;28;20083;-63
2022/05/04 19:27:37;;;;;;;4.07;3.67;;;;;;;;;;10359829;28;20072;-64
2022/05/04 19:32:35;;;;;;;8.52;3.20;;;;;;;;;;10359090;28;20079;-64
2022/05/04 19:37:34;;;;;;;5.93;3.38;;;;;;;;;;10358585;28;20083;-64
2022/05/04 19:42:34;;;;;;;4.45;3.33;;;;;;;;;;10357035;28;20078;-63
2022/05/04 19:47:32;;;;;;;5.25;3.60;;;;;;;;;;10357759;28;20068;-63
2022/05/04 19:52:31;;;;;;;7.97;4.00;;;;;;;;;;10354221;28;20476;-64
2022/05/04 19:57:29;;;;;;;4.72;3.58;;;;;;;;;;10355751;28;20063;-64
2022/05/04 20:02:29;;;;;;;4.38;3.72;;;;;;;;;;10357367;28;20079;-63
2022/05/04 20:07:27;;;;;;;3.70;3.38;;;;;;;;;;10358486;28;20074;-63
2022/05/04 20:12:25;;;;;;;5.05;3.38;;;;;;;;;;10358366;28;20088;-63
2022/05/04 20:17:25;;;;;;;4.90;4.07;;;;;;;;;;10358074;28;20078;-63
2022/05/04 20:22:25;;;;;;;9.30;4.28;;;;;;;;;;10350440;28;20071;-63
2022/05/04 20:27:24;;;;;;;6.25;4.07;;;;;;;;;;10353496;28;20075;-63
2022/05/04 20:32:22;;;;;;;7.88;5.03;;;;;;;;;;10353154;28;20060;-63
2022/05/04 20:42:34;;;;;;;10.60;4.97;;;;;;;;;;10353434;28;20063;-63
2022/05/04 20:47:32;;;;;;;7.32;4.35;;;;;;;;;;10356466;28;20070;-63
2022/05/04 20:52:30;;;;;;;5.65;4.25;;;;;;;;;;10346671;28;20076;-63
2022/05/04 20:57:28;;;;;;;9.25;4.55;;;;;;;;;;10352231;28;20087;-63
2022/05/04 21:02:31;;;;;;;10.73;5.93;;;;;;;;;;10346152;28;20068;-63
2022/05/04 21:07:29;;;;;;;8.98;5.70;;;;;;;;;;10356429;28;20075;-63
2022/05/04 21:12:27;;;;;;;7.45;5.75;;;;;;;;;;10355624;28;20070;-63
2022/05/04 21:17:26;;;;;;;7.20;6.00;;;;;;;;;;10357229;28;20087;-63
2022/05/04 21:22:45;;;;;;;7.53;6.45;;;;;;;;;;10357001;28;20082;-63
2022/05/04 21:27:44;;;;;;;7.65;5.60;;;;;;;;;;10356561;28;20078;-63
2022/05/04 21:32:43;;;;;;;9.43;6.10;;;;;;;;;;10355900;28;20040;-63
2022/05/04 21:37:41;;;;;;;6.65;6.00;;;;;;;;;;10355890;28;20040;-64
2022/05/04 21:42:41;;;;;;;9.77;6.80;;;;;;;;;;10355508;28;20068;-64
2022/05/04 21:47:39;;;;;;;10.90;7.05;;;;;;;;;;10355595;28;20083;-64
2022/05/04 21:52:37;;;;;;;17.23;7.70;;;;;;;;;;10356393;28;20048;-63
2022/05/04 21:57:35;;;;;;;11.38;6.82;;;;;;;;;;10355709;28;20063;-63
2022/05/04 22:02:35;;;;;;;13.55;7.22;;;;;;;;;;10354754;28;20083;-63
2022/05/04 22:07:34;;;;;;;7.70;6.13;;;;;;;;;;10355564;28;20079;-63
2022/05/04 22:17:51;;;;;;;10.48;6.93;;;;;;;;;;10355469;28;20071;-63
2022/05/04 22:22:50;;;;;;;9.75;7.63;;;;;;;;;;10355006;28;20079;-63
2022/05/04 22:27:49;;;;;;;10.43;6.32;;;;;;;;;;10355225;28;20087;-63
2022/05/04 22:32:49;;;;;;;8.90;6.75;;;;;;;;;;10354912;28;20068;-63
2022/05/04 22:37:47;;;;;;;9.80;6.65;;;;;;;;;;10355043;28;20068;-63
2022/05/04 22:42:45;;;;;;;9.05;6.60;;;;;;;;;;10354680;28;20076;-63
2022/05/04 22:47:44;;;;;;;13.82;6.47;;;;;;;;;;10354936;28;20079;-63
2022/05/04 22:52:45;;;;;;;10.13;6.32;;;;;;;;;;10354791;28;20064;-63
2022/05/04 22:57:44;;;;;;;8.18;5.80;;;;;;;;;;10361896;28;20437;-63
2022/05/04 23:02:42;;;;;;;7.72;5.47;;;;;;;;;;10361319;28;20325;-63
2022/05/04 23:07:40;;;;;;;8.90;5.25;;;;;;;;;;10362090;28;20082;-64
2022/05/04 23:12:40;;;;;;;7.10;5.40;;;;;;;;;;10361670;28;20075;-64
2022/05/04 23:17:38;;;;;;;7.47;5.15;;;;;;;;;;10361650;28;20082;-64
2022/05/04 23:22:36;;;;;;;5.78;5.15;;;;;;;;;;10361453;28;20075;-63
2022/05/04 23:27:35;;;;;;;7.28;5.43;;;;;;;;;;10361308;28;20465;-64
2022/05/04 23:32:34;;;;;;;7.13;5.00;;;;;;;;;;10360838;28;20059;-63
2022/05/04 23:37:34;;;;;;;5.93;5.00;;;;;;;;;;10360773;28;20509;-64
2022/05/04 23:42:32;;;;;;;6.07;4.20;;;;;;;;;;10360788;28;20063;-65
2022/05/04 23:47:31;;;;;;;6.78;5.60;;;;;;;;;;10360464;28;20079;-64
2022/05/04 23:52:30;;;;;;;5.93;4.47;;;;;;;;;;10359773;28;20520;-65
2022/05/04 23:57:29;;;;;;;4.82;4.28;;;;;;;;;;10360230;28;20075;-64
